Time;durP1;ratioP1;P1;durP2;ratioP2;P2;SDS_P1;SDS_P2;PMS_P1;PMS_P2;Temp;Humidity;BMP_temperature;BMP_pressure;BME280_temperature;BME280_humidity;BME280_pressure;Samples;Min_cycle;Max_cycle;Signal;HPM_P1;HPM_P2
2022/08/17 00:00:31;;;;;;;6.03;4.07;;;;;;;21.85;55.62;95172.69;5027756;28;20025;-81
2022/08/17 00:03:19;;;;;;;6.57;3.85;;;;;;;21.91;55.32;95167.28;5028494;28;20048;-82
2022/08/17 00:05:48;;;;;;;6.38;4.22;;;;;;;21.93;55.40;95163.22;5029683;28;20045;-84
2022/08/17 00:08:15;;;;;;;9.27;4.50;;;;;;;21.94;55.46;95173.03;5029101;28;20112;-82
2022/08/17 00:10:42;;;;;;;8.30;4.70;;;;;;;21.93;55.34;95173.31;5027784;28;20079;-83
2022/08/17 00:13:13;;;;;;;7.35;4.47;;;;;;;21.86;55.82;95171.59;5028149;28;20126;-82
2022/08/17 00:15:39;;;;;;;5.97;4.17;;;;;;;21.84;55.88;95179.22;5028232;28;20477;-82
2022/08/17 00:18:05;;;;;;;6.65;4.38;;;;;;;21.81;55.92;95173.47;5027513;28;20857;-83
2022/08/17 00:20:30;;;;;;;6.50;4.70;;;;;;;21.77;56.20;95173.13;5028448;28;20124;-83
2022/08/17 00:23:06;;;;;;;6.82;4.60;;;;;;;21.71;56.20;95168.66;5028058;28;20481;-81
2022/08/17 00:25:32;;;;;;;8.10;4.95;;;;;;;21.67;55.65;95165.63;5030398;28;20024;-82
2022/08/17 00:27:57;;;;;;;6.18;4.50;;;;;;;21.68;56.10;95161.78;5027437;28;20057;-84
2022/08/17 00:30:22;;;;;;;9.10;5.07;;;;;;;21.59;56.26;95169.63;5028495;28;20037;-83
2022/08/17 00:32:49;;;;;;;6.40;4.20;;;;;;;21.55;55.80;95165.75;5027845;28;20026;-82
2022/08/17 00:35:16;;;;;;;6.45;4.18;;;;;;;21.52;56.23;95165.44;5028231;28;20025;-83
2022/08/17 00:37:41;;;;;;;7.03;4.90;;;;;;;21.41;56.20;95164.50;5029199;28;20087;-83
2022/08/17 00:40:09;;;;;;;7.53;5.03;;;;;;;21.45;55.92;95157.44;5027454;28;20412;-82
2022/08/17 00:42:34;;;;;;;8.43;5.32;;;;;;;21.41;55.88;95156.31;5028417;28;20022;-84
2022/08/17 00:45:00;;;;;;;8.13;5.40;;;;;;;21.44;55.36;95158.53;5026526;28;20032;-83
2022/08/17 00:47:25;;;;;;;8.73;5.10;;;;;;;21.47;55.27;95155.28;5028159;28;20076;-83
2022/08/17 00:49:51;;;;;;;9.15;5.70;;;;;;;21.48;55.18;95162.38;5027101;28;20029;-83
2022/08/17 00:52:19;;;;;;;9.23;5.05;;;;;;;21.41;55.82;95153.56;5027226;28;20061;-84
2022/08/17 00:54:46;;;;;;;7.00;5.07;;;;;;;21.42;55.89;95155.22;5010203;28;20574;-82
2022/08/17 00:57:17;;;;;;;8.65;4.90;;;;;;;21.34;56.21;95157.31;5009318;28;20022;-83
2022/08/17 00:59:45;;;;;;;8.37;4.70;;;;;;;21.39;55.38;95155.72;5026501;28;20033;-82
2022/08/17 01:02:11;;;;;;;9.85;5.15;;;;;;;21.38;55.75;95154.09;5024962;28;20112;-83
2022/08/17 01:04:37;;;;;;;10.40;4.78;;;;;;;21.38;55.78;95163.06;5026455;28;20030;-82
2022/08/17 01:07:03;;;;;;;6.82;4.63;;;;;;;21.40;55.19;95168.28;5025090;28;20022;-83
2022/08/17 01:09:28;;;;;;;7.03;4.55;;;;;;;21.35;55.50;95161.69;5027260;28;20037;-82
2022/08/17 01:11:54;;;;;;;9.02;5.15;;;;;;;21.32;55.50;95154.00;5009947;28;20455;-83
2022/08/17 01:14:20;;;;;;;8.48;4.85;;;;;;;21.26;55.97;95162.38;5026733;28;20021;-83
2022/08/17 01:16:45;;;;;;;6.88;4.60;;;;;;;21.27;56.19;95172.19;5027428;28;20524;-82
2022/08/17 01:19:41;;;;;;;7.28;4.68;;;;;;;21.26;56.87;95167.81;5025560;28;20017;-83
2022/08/17 01:22:09;;;;;;;8.95;5.03;;;;;;;21.22;56.37;95167.50;5027747;28;20064;-83
2022/08/17 01:24:36;;;;;;;8.70;5.22;;;;;;;21.21;56.24;95161.22;5028694;28;20108;-83
2022/08/17 01:27:02;;;;;;;7.35;4.85;;;;;;;21.10;56.51;95162.97;5029197;28;20041;-83
2022/08/17 01:29:29;;;;;;;6.43;4.97;;;;;;;20.99;56.55;95169.34;5029134;28;20024;-83
2022/08/17 01:31:56;;;;;;;8.30;5.40;;;;;;;20.93;56.53;95167.63;5029901;28;20021;-85
2022/08/17 01:34:23;;;;;;;7.60;5.30;;;;;;;20.96;57.09;95158.94;5031828;28;20029;-83
2022/08/17 01:36:49;;;;;;;6.78;5.50;;;;;;;20.93;56.69;95164.91;5027805;28;20029;-83
2022/08/17 01:39:34;;;;;;;9.73;5.30;;;;;;;20.94;56.33;95161.91;5030125;28;20107;-82
2022/08/17 01:42:10;;;;;;;8.23;5.55;;;;;;;20.94;56.59;95155.66;5027717;28;20060;-82
2022/08/17 01:44:36;;;;;;;10.45;5.35;;;;;;;20.88;56.56;95161.00;5025113;28;20033;-82
2022/08/17 01:47:01;;;;;;;8.15;5.53;;;;;;;20.79;56.27;95157.03;5026975;28;20036;-83
2022/08/17 01:49:27;;;;;;;8.82;5.57;;;;;;;20.73;56.90;95150.69;5025551;28;20036;-83
2022/08/17 01:51:52;;;;;;;10.48;5.35;;;;;;;20.75;57.10;95153.16;5027606;28;20408;-82
2022/08/17 01:54:18;;;;;;;7.45;5.05;;;;;;;20.70;57.25;95162.06;5027023;28;20036;-82
2022/08/17 01:56:45;;;;;;;8.95;5.80;;;;;;;20.70;57.65;95164.81;5027814;28;20033;-82
2022/08/17 01:59:11;;;;;;;10.00;6.03;;;;;;;20.67;57.60;95167.22;5028216;28;20041;-83
2022/08/17 02:01:36;;;;;;;8.27;5.13;;;;;;;20.68;57.81;95155.22;5027898;28;20025;-83
2022/08/17 02:04:02;;;;;;;10.93;5.45;;;;;;;20.71;58.21;95162.91;5027645;28;20040;-82
2022/08/17 02:06:29;;;;;;;8.98;5.38;;;;;;;20.71;57.62;95165.63;5026350;28;20026;-82
2022/08/17 02:08:55;;;;;;;9.45;5.30;;;;;;;20.70;57.66;95164.81;5027175;28;20484;-83
2022/08/17 02:11:20;;;;;;;8.70;5.25;;;;;;;20.57;58.04;95154.25;5025675;28;20032;-83
2022/08/17 02:13:47;;;;;;;10.38;5.22;;;;;;;20.55;58.15;95159.94;5026791;28;20048;-83
2022/08/17 02:16:13;;;;;;;7.82;4.60;;;;;;;20.58;57.79;95164.91;5025610;28;20044;-83
2022/08/17 02:18:38;;;;;;;8.77;5.20;;;;;;;20.58;58.13;95166.78;5026698;28;20108;-82
2022/08/17 02:21:04;;;;;;;7.97;5.20;;;;;;;20.65;58.29;95167.44;5025785;28;20393;-82
2022/08/17 02:23:30;;;;;;;11.50;5.35;;;;;;;20.53;57.36;95162.09;5025875;28;20029;-85
2022/08/17 02:25:57;;;;;;;8.82;5.20;;;;;;;20.48;57.90;95160.09;5025053;28;20021;-83
2022/08/17 02:28:23;;;;;;;8.55;5.35;;;;;;;20.56;57.73;95158.88;5024713;28;20030;-83
2022/08/17 02:30:48;;;;;;;8.48;4.90;;;;;;;20.59;57.68;95161.09;5028442;28;20562;-82
2022/08/17 02:33:14;;;;;;;7.40;4.70;;;;;;;20.52;58.04;95159.59;5029499;28;20033;-84
2022/08/17 02:35:39;;;;;;;6.93;5.07;;;;;;;20.56;58.27;95164.31;5030805;28;20121;-83
2022/08/17 02:38:05;;;;;;;7.70;5.03;;;;;;;20.56;57.69;95163.47;5029351;28;20033;-83
2022/08/17 02:40:31;;;;;;;9.13;5.45;;;;;;;20.50;57.59;95162.56;5029888;28;20589;-83
2022/08/17 02:42:57;;;;;;;9.82;5.03;;;;;;;20.50;57.99;95165.31;5029613;28;20040;-82
2022/08/17 02:45:22;;;;;;;7.65;5.18;;;;;;;20.52;58.04;95174.06;5029524;28;20026;-85
2022/08/17 02:47:49;;;;;;;7.22;4.95;;;;;;;20.55;57.64;95170.84;5030054;28;20114;-84
2022/08/17 02:50:16;;;;;;;8.57;5.35;;;;;;;20.57;57.70;95179.56;5029430;28;20071;-84
2022/08/17 02:52:41;;;;;;;10.95;5.47;;;;;;;20.54;57.83;95174.63;5030043;28;20035;-83
2022/08/17 02:55:10;;;;;;;8.20;5.20;;;;;;;20.55;57.84;95179.00;5028850;28;20033;-84
2022/08/17 02:57:36;;;;;;;8.40;5.47;;;;;;;20.53;58.09;95175.69;5028770;28;20045;-84
2022/08/17 03:00:09;;;;;;;8.23;5.47;;;;;;;20.49;58.02;95178.09;5029081;28;20061;-82
2022/08/17 03:02:38;;;;;;;11.43;5.72;;;;;;;20.49;57.44;95182.72;5029703;28;20028;-82
2022/08/17 03:05:06;;;;;;;10.73;5.78;;;;;;;20.41;57.02;95183.13;5029574;28;20411;-84
2022/08/17 03:07:31;;;;;;;10.45;5.68;;;;;;;20.35;57.72;95180.31;5029069;28;20025;-82
2022/08/17 03:09:57;;;;;;;14.23;7.00;;;;;;;20.27;58.12;95186.16;5029489;28;20030;-83
2022/08/17 03:12:22;;;;;;;8.35;5.25;;;;;;;20.21;58.29;95190.69;5028367;28;20112;-83
2022/08/17 03:14:48;;;;;;;13.65;5.55;;;;;;;20.18;58.25;95193.06;5029332;28;20030;-83
2022/08/17 03:17:13;;;;;;;14.82;5.55;;;;;;;20.11;58.21;95201.38;5028848;28;20408;-82
2022/08/17 03:19:38;;;;;;;13.38;5.88;;;;;;;20.07;58.50;95198.31;5029419;28;20041;-84
2022/08/17 03:22:05;;;;;;;9.02;5.40;;;;;;;20.09;58.71;95201.63;5028549;28;20096;-82
2022/08/17 03:24:30;;;;;;;9.93;5.80;;;;;;;20.01;58.48;95201.97;5027543;28;20105;-82
2022/08/17 03:26:55;;;;;;;13.35;6.05;;;;;;;19.97;58.72;95201.66;5029064;28;20022;-82
2022/08/17 03:29:21;;;;;;;12.80;6.22;;;;;;;19.96;59.33;95202.69;5027995;28;20418;-82
2022/08/17 03:31:47;;;;;;;10.35;6.07;;;;;;;19.99;59.19;95204.94;5029278;28;20029;-82
2022/08/17 03:34:14;;;;;;;9.60;5.60;;;;;;;19.93;59.28;95202.34;5028245;28;20025;-83
2022/08/17 03:36:39;;;;;;;9.95;6.20;;;;;;;19.86;59.34;95202.53;5029397;28;20083;-83
2022/08/17 03:39:04;;;;;;;9.98;6.03;;;;;;;19.79;59.54;95199.09;5026966;28;20030;-83
2022/08/17 03:41:30;;;;;;;12.02;6.05;;;;;;;19.74;59.75;95203.38;5028396;28;20091;-81
2022/08/17 03:43:55;;;;;;;9.65;5.88;;;;;;;19.73;59.84;95204.44;5028529;28;20049;-83
2022/08/17 03:57:18;;;;;;;10.02;5.80;;;;;;;19.63;59.14;95206.94;5029045;28;20037;-83
2022/08/17 03:59:44;;;;;;;13.52;6.18;;;;;;;19.67;58.58;95204.59;5027691;28;20472;-82
2022/08/17 04:02:39;;;;;;;10.10;5.47;;;;;;;19.68;58.88;95219.84;5028947;28;20134;-83
2022/08/17 04:05:04;;;;;;;13.18;5.65;;;;;;;19.66;59.10;95217.34;5031159;28;20038;-82
2022/08/17 04:07:30;;;;;;;13.52;5.28;;;;;;;19.71;58.71;95212.03;5028253;28;20033;-83
2022/08/17 04:09:56;;;;;;;13.40;6.13;;;;;;;19.75;58.75;95215.06;5028229;28;20021;-83
2022/08/17 04:12:22;;;;;;;14.30;5.90;;;;;;;19.77;58.51;95224.66;5027823;28;20495;-84
2022/08/17 04:14:48;;;;;;;10.57;5.97;;;;;;;19.66;59.00;95232.84;5028607;28;20034;-83
2022/08/17 04:17:13;;;;;;;7.80;5.35;;;;;;;19.67;58.40;95232.59;5026891;28;20486;-82
2022/08/17 04:19:39;;;;;;;8.98;5.25;;;;;;;19.67;58.53;95232.59;5028421;28;20038;-83
2022/08/17 04:22:04;;;;;;;6.35;4.95;;;;;;;19.61;58.60;95239.84;5026966;28;20049;-84
2022/08/17 04:24:30;;;;;;;13.25;5.43;;;;;;;19.64;58.32;95244.78;5028121;28;20507;-84
2022/08/17 04:26:56;;;;;;;12.55;6.20;;;;;;;19.64;58.26;95239.34;5027826;28;20580;-82
2022/08/17 04:29:23;;;;;;;11.15;5.32;;;;;;;19.72;58.30;95250.91;5027433;28;20105;-86
2022/08/17 04:31:49;;;;;;;13.13;5.97;;;;;;;19.78;58.27;95249.94;5028010;28;20022;-84
2022/08/17 04:34:15;;;;;;;12.73;5.68;;;;;;;19.89;57.93;95251.03;5026740;28;20041;-84
2022/08/17 04:36:41;;;;;;;13.15;4.90;;;;;;;20.00;56.84;95246.59;5028228;28;20100;-83
2022/08/17 04:39:06;;;;;;;17.25;5.63;;;;;;;19.95;57.05;95251.94;5026772;28;20037;-84
2022/08/17 04:44:16;;;;;;;20.45;6.30;;;;;;;20.08;57.00;95248.97;5027672;28;20039;-83
2022/08/17 04:46:41;;;;;;;39.15;7.70;;;;;;;20.11;57.16;95256.66;5027330;28;20033;-83
2022/08/17 04:49:08;;;;;;;33.08;7.80;;;;;;;19.98;57.51;95256.91;5027712;28;20034;-84
2022/08/17 04:51:38;;;;;;;21.13;7.03;;;;;;;19.99;57.78;95269.47;5026936;28;20030;-84
2022/08/17 04:54:06;;;;;;;19.80;6.30;;;;;;;20.12;57.60;95261.03;5027233;28;20033;-83
2022/08/17 04:56:32;;;;;;;14.30;5.97;;;;;;;20.30;57.21;95258.34;5026273;28;20492;-83
2022/08/17 04:58:59;;;;;;;9.55;5.80;;;;;;;20.44;56.62;95264.34;5027677;28;20116;-83
2022/08/17 05:01:26;;;;;;;9.68;5.05;;;;;;;20.60;56.00;95260.81;5026690;28;20480;-83
2022/08/17 05:03:53;;;;;;;8.77;5.38;;;;;;;20.78;55.53;95258.13;5026880;28;20029;-84
2022/08/17 05:06:18;;;;;;;7.30;5.03;;;;;;;20.86;55.59;95257.72;5027207;28;20796;-83
2022/08/17 05:08:44;;;;;;;9.25;5.53;;;;;;;20.98;55.17;95254.94;5026670;28;20021;-83
2022/08/17 05:11:09;;;;;;;11.15;5.35;;;;;;;21.03;54.71;95254.19;5027692;28;20483;-83
2022/08/17 05:13:35;;;;;;;9.70;5.53;;;;;;;20.99;55.70;95251.97;5025985;28;20530;-83
2022/08/17 05:16:03;;;;;;;10.23;6.15;;;;;;;20.97;55.59;95259.56;5027947;28;20087;-83
2022/08/17 05:18:29;;;;;;;10.13;6.05;;;;;;;20.86;56.64;95263.97;5026300;28;20484;-82
2022/08/17 05:20:54;;;;;;;8.68;5.55;;;;;;;20.82;56.83;95264.72;5027323;28;20037;-82
2022/08/17 05:23:21;;;;;;;10.73;5.72;;;;;;;20.84;56.64;95265.31;5026710;28;20021;-81
2022/08/17 05:25:49;;;;;;;11.18;6.25;;;;;;;20.99;56.71;95273.75;5026477;28;20571;-82
2022/08/17 05:28:15;;;;;;;13.15;6.30;;;;;;;21.23;56.07;95267.34;5027420;28;20357;-83
2022/08/17 05:30:41;;;;;;;18.10;5.85;;;;;;;21.36;55.74;95266.16;5024649;28;20033;-83
2022/08/17 05:33:10;;;;;;;17.80;6.15;;;;;;;21.52;55.16;95269.94;5027391;28;20385;-83
2022/08/17 05:35:38;;;;;;;13.30;5.97;;;;;;;21.46;54.85;95269.03;5025837;28;20034;-83
2022/08/17 05:38:04;;;;;;;14.32;6.35;;;;;;;21.47;55.07;95267.13;5027422;28;20033;-83
2022/08/17 05:40:29;;;;;;;15.60;6.63;;;;;;;21.57;54.93;95272.72;5026175;28;20467;-83
2022/08/17 05:43:15;;;;;;;12.57;5.63;;;;;;;21.80;54.19;95272.78;5026925;28;20022;-83
2022/08/17 05:45:47;;;;;;;13.57;5.72;;;;;;;22.03;53.42;95265.44;5026648;28;20033;-84
2022/08/17 05:48:12;;;;;;;11.93;5.33;;;;;;;22.18;52.81;95262.06;5025747;28;20029;-83
2022/08/17 05:50:54;;;;;;;7.25;5.20;;;;;;;22.24;52.43;95261.03;5025275;28;20069;-82
2022/08/17 05:53:21;;;;;;;12.63;5.20;;;;;;;22.33;52.97;95264.97;5008889;28;20069;-83
2022/08/17 05:55:58;;;;;;;11.25;5.68;;;;;;;22.51;52.69;95262.97;5024662;28;20436;-83
2022/08/17 05:58:30;;;;;;;11.35;5.82;;;;;;;22.65;52.10;95271.59;5025102;28;20040;-83
2022/08/17 06:01:13;;;;;;;14.40;6.03;;;;;;;22.80;52.31;95265.47;5025588;28;20033;-83
2022/08/17 06:03:48;;;;;;;12.15;5.55;;;;;;;22.82;51.70;95265.19;5026696;28;20022;-82
2022/08/17 06:06:27;;;;;;;9.70;5.68;;;;;;;22.65;52.46;95266.13;5024712;28;20025;-83
2022/08/17 06:09:31;;;;;;;13.52;6.28;;;;;;;22.52;53.34;95264.59;5024335;28;20076;-83
2022/08/17 06:12:08;;;;;;;11.77;6.50;;;;;;;22.39;53.28;95268.59;5044177;28;20078;-83
2022/08/17 06:14:52;;;;;;;15.05;6.72;;;;;;;22.23;53.62;95264.88;5025714;28;20031;-83
2022/08/17 06:17:19;;;;;;;14.10;6.00;;;;;;;22.21;54.17;95265.13;5032047;28;20531;-83
2022/08/17 06:19:58;;;;;;;12.18;5.70;;;;;;;22.32;54.04;95266.06;5024076;28;20033;-81
2022/08/17 06:22:27;;;;;;;10.95;5.35;;;;;;;22.53;53.34;95263.53;5007950;28;20022;-83
2022/08/17 06:24:59;;;;;;;10.13;5.18;;;;;;;22.73;52.61;95270.34;5008818;28;20041;-83
2022/08/17 06:27:45;;;;;;;18.40;5.30;;;;;;;22.86;51.94;95268.25;5007853;28;20465;-82
2022/08/17 06:30:17;;;;;;;21.88;5.60;;;;;;;23.06;52.12;95262.13;5009868;28;20036;-84
2022/08/17 06:32:44;;;;;;;13.38;5.15;;;;;;;23.25;51.56;95254.31;5024501;28;20029;-83
2022/08/17 06:35:11;;;;;;;12.80;5.00;;;;;;;23.44;50.59;95262.97;5024339;28;20057;-82
2022/08/17 06:38:15;;;;;;;15.05;5.68;;;;;;;23.62;49.89;95260.09;5008595;28;20032;-82
2022/08/17 06:40:58;;;;;;;18.30;5.10;;;;;;;23.75;49.20;95259.59;5042334;28;20029;-83
2022/08/17 06:43:51;;;;;;;10.50;4.70;;;;;;;23.79;49.19;95249.78;5024326;28;20050;-84
2022/08/17 06:46:33;;;;;;;17.50;6.38;;;;;;;24.09;49.59;95261.13;5026543;28;20030;-84
2022/08/17 06:49:07;;;;;;;26.50;6.53;;;;;;;24.23;49.18;95252.44;5008963;28;20164;-83
2022/08/17 06:51:42;;;;;;;22.45;5.82;;;;;;;24.25;48.93;95248.34;5025243;28;20109;-83
2022/08/17 06:54:31;;;;;;;13.32;4.85;;;;;;;24.38;48.91;95247.00;5007927;28;20022;-83
2022/08/17 06:57:13;;;;;;;15.07;5.75;;;;;;;24.48;48.59;95245.38;5033126;28;20049;-83
2022/08/17 07:00:01;;;;;;;14.95;5.60;;;;;;;24.52;48.69;95244.56;5031994;28;20076;-84
2022/08/17 07:02:48;;;;;;;14.32;5.20;;;;;;;24.64;48.56;95252.53;5024975;28;20507;-84
2022/08/17 07:05:15;;;;;;;17.10;5.57;;;;;;;24.62;47.93;95251.19;5024406;28;20053;-83
2022/08/17 07:08:00;;;;;;;19.60;5.20;;;;;;;24.51;47.86;95251.16;5025834;28;20481;-84
2022/08/17 07:10:26;;;;;;;12.15;5.40;;;;;;;24.59;47.88;95254.44;5025252;28;20029;-84
2022/08/17 07:12:53;;;;;;;18.50;6.18;;;;;;;24.78;48.20;95254.72;5026347;28;20076;-84
2022/08/17 07:15:20;;;;;;;12.20;5.10;;;;;;;24.94;48.10;95253.69;5008812;28;20104;-83
2022/08/17 07:17:46;;;;;;;9.82;4.85;;;;;;;25.23;47.25;95249.56;5011635;28;20040;-84
2022/08/17 07:20:14;;;;;;;13.20;5.05;;;;;;;24.98;47.46;95256.72;5028942;28;20128;-84
2022/08/17 07:23:04;;;;;;;11.23;4.93;;;;;;;24.86;47.94;95251.47;5027983;28;20034;-83
2022/08/17 07:25:30;;;;;;;6.43;4.75;;;;;;;24.68;48.25;95252.81;5029471;28;20033;-84
2022/08/17 07:27:58;;;;;;;11.25;4.55;;;;;;;24.78;47.62;95252.81;5028020;28;20026;-83
2022/08/17 07:30:38;;;;;;;7.15;4.45;;;;;;;24.99;47.76;95244.63;5029335;28;20502;-83
2022/08/17 07:33:07;;;;;;;11.57;4.88;;;;;;;24.85;48.14;95247.06;5028583;28;20405;-83
2022/08/17 07:35:38;;;;;;;7.00;4.38;;;;;;;24.72;48.51;95245.69;5029245;28;20026;-83
2022/08/17 07:38:17;;;;;;;9.43;4.38;;;;;;;24.78;48.32;95244.59;5028967;28;20558;-83
2022/08/17 07:41:04;;;;;;;7.63;4.30;;;;;;;24.84;48.19;95242.69;5028096;28;20235;-83
2022/08/17 07:43:38;;;;;;;8.88;4.40;;;;;;;24.71;48.49;95238.56;5031273;28;20030;-82
2022/08/17 07:49:09;;;;;;;9.02;4.43;;;;;;;25.03;48.00;95226.56;5028985;28;20037;-84
2022/08/17 07:51:46;;;;;;;8.52;4.05;;;;;;;24.83;48.58;95234.75;5029424;28;20017;-83
2022/08/17 07:54:14;;;;;;;9.13;4.63;;;;;;;25.08;48.25;95231.22;5027651;28;20529;-83
2022/08/17 07:56:44;;;;;;;12.57;4.45;;;;;;;25.18;47.78;95227.66;5029351;28;20025;-83
2022/08/17 07:59:11;;;;;;;6.32;4.03;;;;;;;25.08;47.90;95230.38;5028021;28;20030;-84
2022/08/17 08:01:36;;;;;;;7.82;4.50;;;;;;;25.34;46.68;95230.34;5028419;28;20037;-83
2022/08/17 08:04:38;;;;;;;7.20;4.25;;;;;;;25.45;46.54;95231.16;5027148;28;20036;-82
2022/08/17 08:07:10;;;;;;;8.85;4.32;;;;;;;25.63;46.19;95227.03;5042332;28;20571;-82
2022/08/17 08:09:38;;;;;;;;;;;;;;;25.84;45.56;95218.72;5029844;28;20052;-84
2022/08/17 08:12:38;;;;;;;11.15;4.72;;;;;;;26.02;44.57;95225.53;5027869;28;20006;-83
2022/08/17 08:15:24;;;;;;;6.82;4.25;;;;;;;25.96;44.77;95227.47;5028362;28;20087;-83
2022/08/17 08:17:56;;;;;;;5.57;3.90;;;;;;;26.36;45.11;95218.53;5029119;28;20025;-83
2022/08/17 08:20:48;;;;;;;10.48;5.60;;;;;;;26.46;44.53;95212.97;5027289;28;20053;-83
2022/08/17 08:23:38;;;;;;;9.13;4.18;;;;;;;26.77;44.34;95218.25;5026895;28;20032;-84
2022/08/17 08:26:21;;;;;;;6.93;3.80;;;;;;;26.75;43.34;95203.13;5028505;28;20029;-84
2022/08/17 08:29:00;;;;;;;10.23;4.47;;;;;;;26.90;43.32;95210.47;5026238;28;20064;-83
2022/08/17 08:31:48;;;;;;;6.25;4.10;;;;;;;27.16;42.47;95213.03;5026750;28;20037;-85
2022/08/17 08:34:23;;;;;;;7.05;4.20;;;;;;;26.77;41.76;95204.50;5026312;28;20129;-85
2022/08/17 08:37:12;;;;;;;7.00;4.22;;;;;;;26.73;42.33;95197.91;5026293;28;20519;-85
2022/08/17 08:40:02;;;;;;;6.57;4.38;;;;;;;27.08;41.31;95200.72;5027248;28;20496;-84
2022/08/17 08:42:46;;;;;;;6.28;3.42;;;;;;;26.68;41.24;95199.91;5026240;28;20025;-83
2022/08/17 08:45:36;;;;;;;9.23;4.05;;;;;;;26.58;41.93;95189.78;5027852;28;20033;-83
2022/08/17 08:48:32;;;;;;;8.05;3.80;;;;;;;26.50;41.35;95193.97;5026820;28;20442;-84
2022/08/17 08:51:35;;;;;;;7.70;3.70;;;;;;;26.39;41.20;95187.72;5026818;28;20036;-83
2022/08/17 08:54:07;;;;;;;15.70;3.55;;;;;;;26.37;41.52;95171.53;5027525;28;20037;-83
2022/08/17 08:57:02;;;;;;;6.93;3.95;;;;;;;26.66;41.52;95189.19;5027325;28;20437;-85
2022/08/17 08:59:34;;;;;;;7.60;3.60;;;;;;;27.03;39.58;95182.31;5025096;28;20030;-85
2022/08/17 09:02:16;;;;;;;8.20;3.50;;;;;;;27.15;39.58;95181.09;5027909;28;20029;-84
2022/08/17 09:04:41;;;;;;;4.93;3.25;;;;;;;27.24;39.06;95176.63;5025793;28;20033;-84
2022/08/17 09:07:25;;;;;;;8.32;3.40;;;;;;;27.12;39.08;95178.91;5026696;28;20026;-83
2022/08/17 09:10:03;;;;;;;7.47;3.92;;;;;;;26.91;39.88;95174.41;5027547;28;20033;-84
2022/08/17 09:12:39;;;;;;;8.38;3.53;;;;;;;26.79;39.62;95188.50;5026322;28;20072;-83
2022/08/17 09:15:19;;;;;;;6.30;3.33;;;;;;;26.93;39.48;95176.88;5027387;28;20092;-83
2022/08/17 09:17:59;;;;;;;7.97;3.30;;;;;;;27.03;39.95;95176.81;5009203;28;20083;-84
2022/08/17 09:20:34;;;;;;;4.72;3.25;;;;;;;26.70;39.25;95176.50;5024839;28;20478;-83
2022/08/17 09:23:33;;;;;;;6.78;3.38;;;;;;;26.79;40.58;95173.97;5009782;28;20045;-83
2022/08/17 09:26:21;;;;;;;8.85;3.95;;;;;;;26.97;39.45;95177.13;5027647;28;20146;-83
2022/08/17 09:28:50;;;;;;;6.97;3.08;;;;;;;27.15;39.38;95178.34;5026743;28;20117;-84
2022/08/17 09:31:22;;;;;;;13.82;3.80;;;;;;;27.32;40.63;95175.16;5027200;28;20021;-84
2022/08/17 09:33:48;;;;;;;7.00;3.13;;;;;;;27.28;39.48;95171.34;5024980;28;20036;-83
2022/08/17 09:36:22;;;;;;;3.78;2.80;;;;;;;27.10;37.77;95178.41;5027345;28;20604;-84
2022/08/17 09:38:47;;;;;;;7.50;4.18;;;;;;;26.95;38.20;95176.56;5023937;28;20029;-84
2022/08/17 09:41:21;;;;;;;4.47;3.15;;;;;;;26.96;37.99;95181.78;5027048;28;20022;-84
2022/08/17 09:43:58;;;;;;;5.63;3.20;;;;;;;27.00;38.09;95177.38;5026127;28;20026;-83
2022/08/17 09:46:35;;;;;;;6.40;3.13;;;;;;;27.26;38.19;95165.31;5008908;28;20484;-83
2022/08/17 09:49:13;;;;;;;7.47;3.47;;;;;;;27.19;37.97;95167.56;5026858;28;20029;-83
2022/08/17 09:51:40;;;;;;;7.32;2.92;;;;;;;27.22;37.16;95175.25;5025456;28;20539;-84
2022/08/17 09:54:27;;;;;;;6.00;2.97;;;;;;;27.33;36.70;95164.94;5026801;28;20056;-84
2022/08/17 09:57:07;;;;;;;5.88;3.38;;;;;;;27.17;36.60;95164.28;5024985;28;20116;-84
2022/08/17 09:59:49;;;;;;;6.47;2.90;;;;;;;27.18;37.93;95165.94;5026207;28;20029;-83
2022/08/17 10:02:33;;;;;;;12.35;3.25;;;;;;;27.07;37.37;95162.47;5025530;28;20503;-84
2022/08/17 10:05:05;;;;;;;5.60;3.15;;;;;;;27.14;37.92;95160.19;5025466;28;20037;-84
2022/08/17 10:07:50;;;;;;;9.10;3.33;;;;;;;27.32;37.33;95155.06;5026639;28;20040;-84
2022/08/17 10:10:29;;;;;;;10.35;3.80;;;;;;;27.39;36.88;95167.34;5026315;28;20026;-84
2022/08/17 10:13:08;;;;;;;5.57;3.35;;;;;;;27.34;36.30;95148.13;5024501;28;20021;-84
2022/08/17 10:16:02;;;;;;;7.68;3.10;;;;;;;27.25;35.99;95155.41;5025708;28;20029;-84
2022/08/17 10:18:36;;;;;;;4.93;2.97;;;;;;;27.42;35.67;95151.38;5026013;28;20077;-85
2022/08/17 10:26:56;;;;;;;6.43;3.30;;;;;;;27.35;35.70;95148.97;5024711;28;20483;-83
2022/08/17 10:29:34;;;;;;;6.03;3.42;;;;;;;27.57;35.49;95150.41;5025444;28;20029;-83
2022/08/17 10:32:03;;;;;;;4.90;3.20;;;;;;;27.65;35.03;95155.22;5009518;28;20134;-84
2022/08/17 10:34:41;;;;;;;4.50;2.95;;;;;;;27.51;34.99;95147.69;5024533;28;20074;-83
2022/08/17 10:37:15;;;;;;;10.48;4.20;;;;;;;27.72;34.31;95152.16;5026653;28;20044;-83
2022/08/17 10:40:14;;;;;;;5.40;3.40;;;;;;;27.92;33.87;95142.84;5025319;28;20120;-84
2022/08/17 10:42:47;;;;;;;10.10;3.65;;;;;;;27.87;34.33;95145.66;5026090;28;20037;-83
2022/08/17 10:45:25;;;;;;;8.48;3.90;;;;;;;27.87;35.13;95137.38;5025246;28;20036;-83
2022/08/17 10:48:02;;;;;;;9.20;4.10;;;;;;;27.93;34.86;95133.44;5023535;28;20036;-83
2022/08/17 10:50:56;;;;;;;4.72;3.45;;;;;;;28.21;35.40;95141.84;5026474;28;20026;-84
2022/08/17 10:53:30;;;;;;;4.13;3.13;;;;;;;28.20;34.29;95131.13;5029004;28;20045;-83
2022/08/17 10:56:11;;;;;;;6.20;3.75;;;;;;;28.35;33.97;95147.50;5028969;28;20410;-84
2022/08/17 10:58:56;;;;;;;6.32;3.60;;;;;;;28.13;34.96;95140.59;5029667;28;20508;-84
2022/08/17 11:01:57;;;;;;;6.43;3.38;;;;;;;28.17;34.98;95143.59;5028706;28;20029;-84
2022/08/17 11:04:50;;;;;;;5.93;3.35;;;;;;;28.28;34.93;95138.72;5029918;28;20045;-83
2022/08/17 11:07:54;;;;;;;7.30;3.30;;;;;;;28.58;36.05;95138.59;5029654;28;20083;-84
2022/08/17 11:10:34;;;;;;;7.10;3.08;;;;;;;28.58;35.86;95138.59;5037448;28;20048;-83
2022/08/17 11:13:26;;;;;;;6.38;3.72;;;;;;;28.60;35.90;95147.41;5028928;28;20056;-84
2022/08/17 11:16:20;;;;;;;6.20;4.22;;;;;;;29.03;35.19;95131.81;5028421;28;20030;-83
2022/08/17 11:19:07;;;;;;;5.53;3.30;;;;;;;29.25;34.89;95139.41;5026626;28;20052;-85
2022/08/17 11:21:51;;;;;;;4.90;3.38;;;;;;;29.34;34.49;95134.03;5028977;28;20100;-83
2022/08/17 11:24:35;;;;;;;5.95;4.00;;;;;;;29.05;35.09;95157.19;5029003;28;20037;-83
2022/08/17 11:27:12;;;;;;;5.60;3.42;;;;;;;29.04;35.13;95138.97;5029240;28;20040;-83
2022/08/17 11:29:53;;;;;;;6.55;3.80;;;;;;;29.46;35.37;95139.03;5033457;28;20030;-83
2022/08/17 11:32:44;;;;;;;4.75;3.50;;;;;;;29.47;34.67;95143.44;5026902;28;20029;-84
2022/08/17 11:35:19;;;;;;;5.27;3.40;;;;;;;29.43;35.36;95146.00;5028439;28;20088;-84
2022/08/17 11:38:06;;;;;;;9.38;4.45;;;;;;;29.37;36.32;95158.25;5029297;28;20029;-84
2022/08/17 11:40:32;;;;;;;9.13;4.63;;;;;;;28.86;36.59;95169.88;5027789;28;20041;-83
2022/08/17 11:43:02;;;;;;;8.70;4.80;;;;;;;28.72;37.80;95172.59;5029200;28;20032;-83
2022/08/17 11:45:43;;;;;;;13.82;5.25;;;;;;;28.78;38.42;95170.56;5028061;28;20025;-84
2022/08/17 11:54:44;;;;;;;7.60;4.60;;;;;;;28.80;39.89;95173.00;5026261;28;20546;-83
2022/08/17 11:57:24;;;;;;;11.57;4.30;;;;;;;28.19;40.63;95179.13;5027562;28;20083;-84
2022/08/17 12:00:09;;;;;;;6.47;4.57;;;;;;;27.93;41.12;95168.44;5029033;28;20091;-83
2022/08/17 12:02:57;;;;;;;11.07;5.15;;;;;;;28.07;40.73;95163.03;5027388;28;20083;-83
2022/08/17 12:05:28;;;;;;;7.15;4.82;;;;;;;27.77;40.56;95169.47;5024858;28;20506;-83
2022/08/17 12:08:20;;;;;;;9.48;4.80;;;;;;;27.92;39.99;95172.31;5027662;28;20025;-85
2022/08/17 12:10:57;;;;;;;7.68;4.45;;;;;;;27.85;39.69;95167.97;5042574;28;20043;-84
2022/08/17 12:13:23;;;;;;;6.45;3.72;;;;;;;27.98;37.95;95169.19;5026767;28;20580;-83
2022/08/17 12:15:51;;;;;;;7.78;4.15;;;;;;;28.10;37.07;95173.47;5026477;28;20105;-83
2022/08/17 12:18:32;;;;;;;7.13;3.70;;;;;;;28.45;36.51;95162.25;5009982;28;20064;-82
2022/08/17 12:21:01;;;;;;;5.93;3.25;;;;;;;28.52;35.59;95159.13;5028329;28;20427;-83
2022/08/17 12:23:40;;;;;;;4.10;3.25;;;;;;;28.94;35.34;95151.00;5025818;28;20033;-83
2022/08/17 12:26:26;;;;;;;5.35;3.47;;;;;;;29.17;35.14;95149.22;5011101;28;20079;-84
2022/08/17 12:28:57;;;;;;;6.53;3.88;;;;;;;29.44;35.46;95142.09;5012959;28;20107;-83